sensor_id;sensor_type;location;lat;lon;timestamp;pressure;altitude;pressure_sealevel;temperature;humidity
46111;BME280;31849;55.992;37.252;2022-10-04T00:03:40;97791.44;;;10.77;64.36
46111;BME280;31849;55.992;37.252;2022-10-04T00:08:47;97793.06;;;10.81;64.40
46111;BME280;31849;55.992;37.252;2022-10-04T00:13:57;97791.50;;;10.75;64.55
46111;BME280;31849;55.992;37.252;2022-10-04T00:19:21;97798.38;;;10.76;64.87
46111;BME280;31849;55.992;37.252;2022-10-04T00:24:28;97796.31;;;10.87;64.14
46111;BME280;31849;55.992;37.252;2022-10-04T00:29:35;97810.09;;;10.89;64.10
46111;BME280;31849;55.992;37.252;2022-10-04T00:34:47;97803.19;;;10.60;64.21
46111;BME280;31849;55.992;37.252;2022-10-04T00:40:02;97802.63;;;10.79;64.60
46111;BME280;31849;55.992;37.252;2022-10-04T00:45:15;97807.69;;;10.53;64.87
46111;BME280;31849;55.992;37.252;2022-10-04T00:50:26;97825.59;;;10.31;64.96
46111;BME280;31849;55.992;37.252;2022-10-04T00:55:35;97811.22;;;10.51;64.50
46111;BME280;31849;55.992;37.252;2022-10-04T01:00:44;97817.47;;;10.45;64.59
46111;BME280;31849;55.992;37.252;2022-10-04T01:05:53;97825.88;;;10.53;64.40
46111;BME280;31849;55.992;37.252;2022-10-04T01:11:05;97824.78;;;10.62;64.43
46111;BME280;31849;55.992;37.252;2022-10-04T01:16:16;97822.91;;;10.67;63.91
46111;BME280;31849;55.992;37.252;2022-10-04T01:21:25;97831.56;;;10.68;64.03
46111;BME280;31849;55.992;37.252;2022-10-04T01:26:43;97829.31;;;10.85;63.59
46111;BME280;31849;55.992;37.252;2022-10-04T01:31:49;97835.22;;;10.90;63.56
46111;BME280;31849;55.992;37.252;2022-10-04T01:36:55;97820.78;;;10.80;63.83
46111;BME280;31849;55.992;37.252;2022-10-04T01:42:06;97852.41;;;10.66;63.90
46111;BME280;31849;55.992;37.252;2022-10-04T01:47:13;97832.25;;;10.73;63.80
46111;BME280;31849;55.992;37.252;2022-10-04T01:52:21;97849.69;;;10.69;64.24
46111;BME280;31849;55.992;37.252;2022-10-04T01:57:32;97837.53;;;10.70;64.18
46111;BME280;31849;55.992;37.252;2022-10-04T02:02:42;97834.50;;;10.55;63.85
46111;BME280;31849;55.992;37.252;2022-10-04T02:07:48;97848.44;;;10.53;64.77
46111;BME280;31849;55.992;37.252;2022-10-04T02:12:54;97830.84;;;10.30;65.22
46111;BME280;31849;55.992;37.252;2022-10-04T02:17:59;97837.94;;;10.25;65.69
46111;BME280;31849;55.992;37.252;2022-10-04T02:23:03;97867.13;;;10.34;65.48
46111;BME280;31849;55.992;37.252;2022-10-04T02:28:10;97853.13;;;10.40;65.36
46111;BME280;31849;55.992;37.252;2022-10-04T02:33:15;97865.25;;;10.40;65.29
46111;BME280;31849;55.992;37.252;2022-10-04T02:38:22;97864.56;;;10.31;64.82
46111;BME280;31849;55.992;37.252;2022-10-04T02:43:32;97850.78;;;10.29;65.23
46111;BME280;31849;55.992;37.252;2022-10-04T02:48:43;97872.78;;;10.16;65.91
46111;BME280;31849;55.992;37.252;2022-10-04T02:53:54;97893.72;;;10.10;66.50
46111;BME280;31849;55.992;37.252;2022-10-04T02:59:05;97885.03;;;10.11;66.58
46111;BME280;31849;55.992;37.252;2022-10-04T03:04:11;97869.00;;;9.95;66.75
46111;BME280;31849;55.992;37.252;2022-10-04T03:09:18;97891.81;;;9.82;67.30
46111;BME280;31849;55.992;37.252;2022-10-04T03:14:31;97895.44;;;10.09;66.77
46111;BME280;31849;55.992;37.252;2022-10-04T03:19:35;97885.38;;;9.97;67.39
46111;BME280;31849;55.992;37.252;2022-10-04T03:24:42;97913.19;;;9.93;67.66
46111;BME280;31849;55.992;37.252;2022-10-04T03:29:49;97891.47;;;9.96;67.64
46111;BME280;31849;55.992;37.252;2022-10-04T03:35:02;97891.38;;;9.99;67.81
46111;BME280;31849;55.992;37.252;2022-10-04T03:40:08;97894.41;;;10.16;66.79
46111;BME280;31849;55.992;37.252;2022-10-04T03:45:17;97904.31;;;10.00;66.75
46111;BME280;31849;55.992;37.252;2022-10-04T03:50:23;97891.22;;;10.07;66.49
46111;BME280;31849;55.992;37.252;2022-10-04T03:55:31;97908.91;;;9.91;67.55
46111;BME280;31849;55.992;37.252;2022-10-04T04:00:42;97900.94;;;9.98;67.42
46111;BME280;31849;55.992;37.252;2022-10-04T04:05:49;97893.06;;;10.01;67.41
46111;BME280;31849;55.992;37.252;2022-10-04T04:10:57;97912.28;;;9.94;67.58
46111;BME280;31849;55.992;37.252;2022-10-04T04:16:04;97931.78;;;10.11;67.06
46111;BME280;31849;55.992;37.252;2022-10-04T04:21:11;97923.91;;;10.14;67.09
46111;BME280;31849;55.992;37.252;2022-10-04T04:26:24;97930.13;;;10.43;66.38
46111;BME280;31849;55.992;37.252;2022-10-04T04:31:34;97942.47;;;10.33;66.37
46111;BME280;31849;55.992;37.252;2022-10-04T04:36:40;97923.97;;;10.47;66.15
46111;BME280;31849;55.992;37.252;2022-10-04T04:41:44;97936.50;;;10.64;65.58
46111;BME280;31849;55.992;37.252;2022-10-04T04:46:54;97939.22;;;10.90;64.48
46111;BME280;31849;55.992;37.252;2022-10-04T04:52:02;97943.88;;;11.11;64.64
46111;BME280;31849;55.992;37.252;2022-10-04T04:57:06;97957.28;;;11.55;62.45
46111;BME280;31849;55.992;37.252;2022-10-04T05:02:30;97942.53;;;14.03;55.20
46111;BME280;31849;55.992;37.252;2022-10-04T05:07:36;97954.72;;;13.11;58.30
46111;BME280;31849;55.992;37.252;2022-10-04T05:12:40;97968.34;;;12.45;59.44
46111;BME280;31849;55.992;37.252;2022-10-04T05:17:45;97966.00;;;12.37;59.78
46111;BME280;31849;55.992;37.252;2022-10-04T05:22:49;97966.47;;;11.67;61.51
46111;BME280;31849;55.992;37.252;2022-10-04T05:27:54;97978.69;;;11.65;61.41
46111;BME280;31849;55.992;37.252;2022-10-04T05:33:03;97982.56;;;11.21;61.90
46111;BME280;31849;55.992;37.252;2022-10-04T05:38:13;97980.25;;;11.42;61.50
46111;BME280;31849;55.992;37.252;2022-10-04T05:43:31;97973.31;;;11.71;60.93
46111;BME280;31849;55.992;37.252;2022-10-04T05:48:38;97983.41;;;12.10;60.28
46111;BME280;31849;55.992;37.252;2022-10-04T05:53:44;97994.78;;;12.07;59.88
46111;BME280;31849;55.992;37.252;2022-10-04T05:59:00;97996.94;;;12.21;59.60
46111;BME280;31849;55.992;37.252;2022-10-04T06:04:31;98011.50;;;12.27;58.02
46111;BME280;31849;55.992;37.252;2022-10-04T06:10:02;98012.44;;;11.98;58.94
46111;BME280;31849;55.992;37.252;2022-10-04T06:15:40;98005.28;;;12.04;59.17
46111;BME280;31849;55.992;37.252;2022-10-04T06:26:26;98011.53;;;11.99;59.27
46111;BME280;31849;55.992;37.252;2022-10-04T06:31:58;98018.56;;;11.96;59.47
46111;BME280;31849;55.992;37.252;2022-10-04T06:37:20;98024.72;;;11.64;59.68
46111;BME280;31849;55.992;37.252;2022-10-04T06:43:03;98030.78;;;11.94;59.16
46111;BME280;31849;55.992;37.252;2022-10-04T06:48:27;98012.13;;;12.08;59.75
46111;BME280;31849;55.992;37.252;2022-10-04T06:53:49;98029.59;;;12.05;59.35
46111;BME280;31849;55.992;37.252;2022-10-04T07:04:34;98033.06;;;12.04;59.22
46111;BME280;31849;55.992;37.252;2022-10-04T07:10:11;98043.03;;;12.46;57.82
46111;BME280;31849;55.992;37.252;2022-10-04T07:15:22;98022.53;;;12.62;57.30
46111;BME280;31849;55.992;37.252;2022-10-04T07:20:30;98041.16;;;12.76;56.89
46111;BME280;31849;55.992;37.252;2022-10-04T07:25:43;98044.31;;;13.11;55.79
46111;BME280;31849;55.992;37.252;2022-10-04T07:30:52;98042.22;;;12.96;56.12
46111;BME280;31849;55.992;37.252;2022-10-04T07:36:04;98034.50;;;12.93;55.96
46111;BME280;31849;55.992;37.252;2022-10-04T07:41:19;98038.50;;;13.03;56.45
46111;BME280;31849;55.992;37.252;2022-10-04T07:46:38;98044.25;;;12.88;55.82
46111;BME280;31849;55.992;37.252;2022-10-04T07:52:04;98048.47;;;12.66;56.30
46111;BME280;31849;55.992;37.252;2022-10-04T07:57:21;98042.94;;;13.01;55.27
46111;BME280;31849;55.992;37.252;2022-10-04T08:02:39;98048.97;;;12.76;56.29
46111;BME280;31849;55.992;37.252;2022-10-04T08:07:57;98036.47;;;13.84;53.38
46111;BME280;31849;55.992;37.252;2022-10-04T08:13:14;98032.16;;;17.14;46.62
46111;BME280;31849;55.992;37.252;2022-10-04T08:18:33;98031.31;;;16.07;48.09
46111;BME280;31849;55.992;37.252;2022-10-04T08:23:58;98026.41;;;15.61;48.07
46111;BME280;31849;55.992;37.252;2022-10-04T08:29:36;98042.19;;;15.41;48.49
46111;BME280;31849;55.992;37.252;2022-10-04T08:40:38;98062.41;;;14.55;49.33
46111;BME280;31849;55.992;37.252;2022-10-04T08:46:19;98048.53;;;14.53;50.50
46111;BME280;31849;55.992;37.252;2022-10-04T08:52:18;98059.94;;;14.30;50.61
46111;BME280;31849;55.992;37.252;2022-10-04T08:57:59;98046.69;;;14.12;51.44
46111;BME280;31849;55.992;37.252;2022-10-04T09:03:35;98039.50;;;14.39;50.48
46111;BME280;31849;55.992;37.252;2022-10-04T09:20:47;98028.19;;;14.82;49.27
46111;BME280;31849;55.992;37.252;2022-10-04T09:26:06;98031.84;;;14.35;50.09
46111;BME280;31849;55.992;37.252;2022-10-04T09:31:36;98032.09;;;13.37;51.86
46111;BME280;31849;55.992;37.252;2022-10-04T09:37:05;98034.75;;;14.05;50.77
46111;BME280;31849;55.992;37.252;2022-10-04T09:42:39;98026.03;;;14.06;50.74
46111;BME280;31849;55.992;37.252;2022-10-04T09:47:50;98029.94;;;13.72;50.32
46111;BME280;31849;55.992;37.252;2022-10-04T09:53:17;98030.38;;;13.60;51.30
46111;BME280;31849;55.992;37.252;2022-10-04T09:58:33;98030.06;;;13.45;51.67
46111;BME280;31849;55.992;37.252;2022-10-04T10:04:03;98021.59;;;13.39;51.62
46111;BME280;31849;55.992;37.252;2022-10-04T10:09:22;98019.19;;;13.32;54.41
46111;BME280;31849;55.992;37.252;2022-10-04T10:15:03;98015.59;;;13.11;56.32
46111;BME280;31849;55.992;37.252;2022-10-04T10:20:38;98039.66;;;12.94;57.27
46111;BME280;31849;55.992;37.252;2022-10-04T10:25:56;98058.47;;;12.25;60.77
46111;BME280;31849;55.992;37.252;2022-10-04T10:31:24;98083.00;;;12.18;62.57
46111;BME280;31849;55.992;37.252;2022-10-04T10:36:55;98123.59;;;11.97;64.28
46111;BME280;31849;55.992;37.252;2022-10-04T10:42:16;98153.75;;;11.08;66.51
46111;BME280;31849;55.992;37.252;2022-10-04T10:47:38;98148.09;;;10.55;66.53
46111;BME280;31849;55.992;37.252;2022-10-04T10:53:18;98178.41;;;10.56;65.55
46111;BME280;31849;55.992;37.252;2022-10-04T10:58:56;98183.88;;;10.45;66.48
46111;BME280;31849;55.992;37.252;2022-10-04T11:04:38;98207.22;;;10.47;66.14
46111;BME280;31849;55.992;37.252;2022-10-04T11:10:06;98207.53;;;10.30;66.51
46111;BME280;31849;55.992;37.252;2022-10-04T11:15:42;98200.06;;;10.14;67.99
46111;BME280;31849;55.992;37.252;2022-10-04T11:26:55;98214.81;;;10.56;66.38
46111;BME280;31849;55.992;37.252;2022-10-04T11:32:43;98216.81;;;10.82;66.43
46111;BME280;31849;55.992;37.252;2022-10-04T11:38:00;98210.84;;;10.77;66.49
46111;BME280;31849;55.992;37.252;2022-10-04T11:43:24;98210.59;;;10.88;65.96
46111;BME280;31849;55.992;37.252;2022-10-04T11:48:41;98207.09;;;10.89;66.41
46111;BME280;31849;55.992;37.252;2022-10-04T11:54:16;98209.25;;;10.71;67.62
46111;BME280;31849;55.992;37.252;2022-10-04T11:59:44;98226.00;;;10.58;68.08
46111;BME280;31849;55.992;37.252;2022-10-04T12:05:22;98236.56;;;10.50;67.60
46111;BME280;31849;55.992;37.252;2022-10-04T12:10:35;98242.34;;;10.21;67.27
46111;BME280;31849;55.992;37.252;2022-10-04T12:15:49;98240.84;;;10.09;67.09
46111;BME280;31849;55.992;37.252;2022-10-04T12:32:06;98258.75;;;10.25;66.65
46111;BME280;31849;55.992;37.252;2022-10-04T12:37:20;98275.06;;;10.31;67.01
46111;BME280;31849;55.992;37.252;2022-10-04T12:42:37;98280.28;;;10.30;66.29
46111;BME280;31849;55.992;37.252;2022-10-04T12:47:59;98288.31;;;10.17;66.13
46111;BME280;31849;55.992;37.252;2022-10-04T12:53:16;98293.16;;;10.36;65.93
46111;BME280;31849;55.992;37.252;2022-10-04T12:58:24;98297.16;;;10.54;65.21
46111;BME280;31849;55.992;37.252;2022-10-04T13:03:53;98280.84;;;10.46;65.31
46111;BME280;31849;55.992;37.252;2022-10-04T13:09:07;98302.28;;;10.12;65.31
46111;BME280;31849;55.992;37.252;2022-10-04T13:14:44;98305.06;;;10.02;66.17
46111;BME280;31849;55.992;37.252;2022-10-04T13:19:59;98312.94;;;9.98;65.44
46111;BME280;31849;55.992;37.252;2022-10-04T13:30:55;98324.16;;;10.00;65.79
46111;BME280;31849;55.992;37.252;2022-10-04T13:36:06;98326.75;;;10.00;66.07
46111;BME280;31849;55.992;37.252;2022-10-04T13:41:20;98325.66;;;10.12;65.57
46111;BME280;31849;55.992;37.252;2022-10-04T13:46:38;98324.41;;;9.86;65.88
46111;BME280;31849;55.992;37.252;2022-10-04T13:52:00;98339.38;;;9.70;65.78
46111;BME280;31849;55.992;37.252;2022-10-04T13:57:30;98325.31;;;9.83;66.20
46111;BME280;31849;55.992;37.252;2022-10-04T14:03:07;98334.44;;;9.56;66.67
46111;BME280;31849;55.992;37.252;2022-10-04T14:14:23;98330.13;;;9.55;67.04
46111;BME280;31849;55.992;37.252;2022-10-04T14:31:32;98328.53;;;9.46;67.52
46111;BME280;31849;55.992;37.252;2022-10-04T14:42:41;98341.63;;;9.39;68.12
46111;BME280;31849;55.992;37.252;2022-10-04T14:53:34;98344.97;;;9.45;67.63
46111;BME280;31849;55.992;37.252;2022-10-04T14:58:52;98343.03;;;9.58;67.22
46111;BME280;31849;55.992;37.252;2022-10-04T15:04:13;98350.97;;;9.49;67.79
46111;BME280;31849;55.992;37.252;2022-10-04T15:09:46;98355.38;;;9.44;67.59
46111;BME280;31849;55.992;37.252;2022-10-04T15:20:51;98361.66;;;9.27;67.88
46111;BME280;31849;55.992;37.252;2022-10-04T15:26:01;98359.03;;;9.30;67.50
46111;BME280;31849;55.992;37.252;2022-10-04T15:31:12;98366.81;;;9.30;67.36
46111;BME280;31849;55.992;37.252;2022-10-04T15:36:41;98366.06;;;9.24;67.12
46111;BME280;31849;55.992;37.252;2022-10-04T15:41:52;98363.53;;;9.19;67.14
46111;BME280;31849;55.992;37.252;2022-10-04T15:47:08;98365.28;;;9.17;67.14
46111;BME280;31849;55.992;37.252;2022-10-04T15:52:40;98379.25;;;9.07;66.51
46111;BME280;31849;55.992;37.252;2022-10-04T15:58:07;98384.44;;;9.07;66.49
46111;BME280;31849;55.992;37.252;2022-10-04T16:03:28;98379.44;;;8.93;66.69
46111;BME280;31849;55.992;37.252;2022-10-04T16:08:49;98377.75;;;8.90;66.58
46111;BME280;31849;55.992;37.252;2022-10-04T16:19:59;98383.06;;;8.81;66.62
46111;BME280;31849;55.992;37.252;2022-10-04T16:25:36;98378.66;;;8.86;66.67
46111;BME280;31849;55.992;37.252;2022-10-04T16:30:46;98383.00;;;8.84;66.54
46111;BME280;31849;55.992;37.252;2022-10-04T16:36:04;98388.16;;;8.87;66.83
46111;BME280;31849;55.992;37.252;2022-10-04T16:41:30;98380.41;;;8.84;66.65
46111;BME280;31849;55.992;37.252;2022-10-04T16:46:37;98379.59;;;8.82;66.59
46111;BME280;31849;55.992;37.252;2022-10-04T16:52:05;98373.50;;;8.83;67.23
46111;BME280;31849;55.992;37.252;2022-10-04T16:57:20;98375.94;;;8.97;66.52
46111;BME280;31849;55.992;37.252;2022-10-04T17:03:01;98375.97;;;8.95;66.61
46111;BME280;31849;55.992;37.252;2022-10-04T17:08:23;98373.38;;;8.95;66.59
46111;BME280;31849;55.992;37.252;2022-10-04T17:13:42;98368.91;;;9.04;66.51
46111;BME280;31849;55.992;37.252;2022-10-04T17:19:13;98376.72;;;9.02;66.87
46111;BME280;31849;55.992;37.252;2022-10-04T17:24:30;98371.38;;;9.16;66.68
46111;BME280;31849;55.992;37.252;2022-10-04T17:29:51;98369.66;;;9.13;66.55
46111;BME280;31849;55.992;37.252;2022-10-04T17:35:17;98378.41;;;9.05;66.68
46111;BME280;31849;55.992;37.252;2022-10-04T17:40:36;98386.16;;;9.08;66.79
46111;BME280;31849;55.992;37.252;2022-10-04T17:46:08;98387.88;;;9.09;66.79
46111;BME280;31849;55.992;37.252;2022-10-04T17:51:32;98379.19;;;9.10;66.21
46111;BME280;31849;55.992;37.252;2022-10-04T17:57:21;98379.19;;;9.13;65.96
46111;BME280;31849;55.992;37.252;2022-10-04T18:08:10;98378.13;;;9.25;65.93
46111;BME280;31849;55.992;37.252;2022-10-04T18:13:27;98384.38;;;9.13;65.92
46111;BME280;31849;55.992;37.252;2022-10-04T18:18:38;98381.53;;;9.30;65.22
46111;BME280;31849;55.992;37.252;2022-10-04T18:23:51;98376.59;;;9.13;65.23
46111;BME280;31849;55.992;37.252;2022-10-04T18:28:58;98393.78;;;9.19;65.29
46111;BME280;31849;55.992;37.252;2022-10-04T18:34:26;98397.22;;;9.22;65.77
46111;BME280;31849;55.992;37.252;2022-10-04T18:39:43;98404.09;;;9.22;65.42
46111;BME280;31849;55.992;37.252;2022-10-04T18:44:56;98396.66;;;8.98;65.88
46111;BME280;31849;55.992;37.252;2022-10-04T18:50:13;98391.66;;;8.83;66.34
46111;BME280;31849;55.992;37.252;2022-10-04T18:55:28;98391.72;;;8.77;66.48
46111;BME280;31849;55.992;37.252;2022-10-04T19:00:38;98403.97;;;8.66;66.70
46111;BME280;31849;55.992;37.252;2022-10-04T19:06:09;98406.59;;;8.64;66.99
46111;BME280;31849;55.992;37.252;2022-10-04T19:11:22;98404.78;;;8.71;66.68
46111;BME280;31849;55.992;37.252;2022-10-04T19:16:35;98411.81;;;8.59;66.53
46111;BME280;31849;55.992;37.252;2022-10-04T19:21:49;98411.84;;;8.56;66.95
46111;BME280;31849;55.992;37.252;2022-10-04T19:27:02;98414.53;;;8.47;67.04
46111;BME280;31849;55.992;37.252;2022-10-04T19:32:10;98417.41;;;8.16;67.62
46111;BME280;31849;55.992;37.252;2022-10-04T19:37:24;98426.16;;;8.03;67.92
46111;BME280;31849;55.992;37.252;2022-10-04T19:42:40;98419.94;;;8.21;67.69
46111;BME280;31849;55.992;37.252;2022-10-04T19:47:49;98415.72;;;8.09;67.32
46111;BME280;31849;55.992;37.252;2022-10-04T19:52:57;98423.47;;;8.15;67.22
46111;BME280;31849;55.992;37.252;2022-10-04T19:58:18;98413.09;;;8.18;67.46
46111;BME280;31849;55.992;37.252;2022-10-04T20:03:24;98413.84;;;8.28;67.05
46111;BME280;31849;55.992;37.252;2022-10-04T20:08:51;98404.22;;;8.44;67.04
46111;BME280;31849;55.992;37.252;2022-10-04T20:19:55;98417.22;;;8.35;67.37
46111;BME280;31849;55.992;37.252;2022-10-04T20:25:02;98418.94;;;8.39;67.34
46111;BME280;31849;55.992;37.252;2022-10-04T20:30:11;98416.19;;;8.54;66.81
46111;BME280;31849;55.992;37.252;2022-10-04T20:41:48;98411.88;;;8.52;67.75
46111;BME280;31849;55.992;37.252;2022-10-04T20:47:35;98423.22;;;8.40;68.42
46111;BME280;31849;55.992;37.252;2022-10-04T20:52:45;98423.19;;;8.44;68.17
46111;BME280;31849;55.992;37.252;2022-10-04T20:57:50;98416.25;;;8.48;67.94
46111;BME280;31849;55.992;37.252;2022-10-04T21:03:22;98420.53;;;8.54;68.22
46111;BME280;31849;55.992;37.252;2022-10-04T21:08:26;98411.91;;;8.50;68.33
46111;BME280;31849;55.992;37.252;2022-10-04T21:13:52;98402.47;;;8.44;68.73
46111;BME280;31849;55.992;37.252;2022-10-04T21:24:53;98402.44;;;8.48;68.88
46111;BME280;31849;55.992;37.252;2022-10-04T21:29:59;98405.81;;;8.54;68.51
46111;BME280;31849;55.992;37.252;2022-10-04T21:35:05;98399.72;;;8.60;68.21
46111;BME280;31849;55.992;37.252;2022-10-04T21:40:12;98402.34;;;8.57;68.11
46111;BME280;31849;55.992;37.252;2022-10-04T21:45:17;98414.38;;;8.62;67.92
46111;BME280;31849;55.992;37.252;2022-10-04T21:50:21;98413.50;;;8.62;68.32
46111;BME280;31849;55.992;37.252;2022-10-04T21:55:25;98410.09;;;8.60;68.16
46111;BME280;31849;55.992;37.252;2022-10-04T22:00:31;98407.47;;;8.63;68.34
46111;BME280;31849;55.992;37.252;2022-10-04T22:05:35;98409.31;;;8.52;68.14
46111;BME280;31849;55.992;37.252;2022-10-04T22:10:39;98405.03;;;8.48;67.79
46111;BME280;31849;55.992;37.252;2022-10-04T22:15:46;98409.50;;;8.32;68.64
46111;BME280;31849;55.992;37.252;2022-10-04T22:20:50;98400.88;;;8.28;68.53
46111;BME280;31849;55.992;37.252;2022-10-04T22:25:54;98404.38;;;8.25;68.75
46111;BME280;31849;55.992;37.252;2022-10-04T22:31:00;98405.16;;;8.32;68.42
46111;BME280;31849;55.992;37.252;2022-10-04T22:36:12;98397.53;;;8.20;68.70
46111;BME280;31849;55.992;37.252;2022-10-04T22:41:17;98405.25;;;8.24;68.59
46111;BME280;31849;55.992;37.252;2022-10-04T22:46:25;98411.22;;;8.30;68.44
46111;BME280;31849;55.992;37.252;2022-10-04T22:51:31;98406.19;;;8.17;69.08
46111;BME280;31849;55.992;37.252;2022-10-04T22:56:35;98398.38;;;8.20;69.13
46111;BME280;31849;55.992;37.252;2022-10-04T23:01:41;98398.28;;;8.28;68.34
46111;BME280;31849;55.992;37.252;2022-10-04T23:06:45;98407.00;;;8.21;69.42
46111;BME280;31849;55.992;37.252;2022-10-04T23:11:49;98404.50;;;8.12;69.43
46111;BME280;31849;55.992;37.252;2022-10-04T23:16:55;98404.50;;;8.10;69.55
46111;BME280;31849;55.992;37.252;2022-10-04T23:21:59;98403.72;;;8.05;69.22
46111;BME280;31849;55.992;37.252;2022-10-04T23:27:13;98407.13;;;8.07;69.93
46111;BME280;31849;55.992;37.252;2022-10-04T23:32:19;98393.41;;;8.00;70.02
46111;BME280;31849;55.992;37.252;2022-10-04T23:37:24;98402.81;;;8.06;69.31
46111;BME280;31849;55.992;37.252;2022-10-04T23:42:31;98404.50;;;8.12;69.30
46111;BME280;31849;55.992;37.252;2022-10-04T23:47:39;98398.34;;;8.22;68.77
46111;BME280;31849;55.992;37.252;2022-10-04T23:52:43;98398.31;;;8.26;69.27
46111;BME280;31849;55.992;37.252;2022-10-04T23:57:47;98392.25;;;8.27;69.16
